KLM615 EHAM-KPDX
Flight info
| Callsign | KLM615 |
|---|---|
| Flight time | N/A |
| Altitude | 34000 |
| Route | BERGI L602 NALAX L46 ESHIN N110 ERKIT DCT NAVSO DCT GOMUP/M085F340 DCT 5930N02000W 6230N03000W 64N040W 65N050W DCT EPMAN/N0499F360 DCT 67N87W 65N100W 60N110W 55N116W/N0491F380 DCT LONRO DCT YDC J503 SEA DCT BUWZO KRATR3 |
| Aircraft | B78X/H-SDE1E2E3FGHIJ2J3J4J5M1RWXY/LB1D1 |
Departure
| Time | 2026-04-28 12:51 |
|---|---|
| Airport | Amsterdam Airport Schiphol (EHAM) |
Arrival
| Time | N/A |
|---|---|
| Airport | Portland International Airport (KPDX) |
| Time | Latitude | Longitude | Altitude | Speed | Heading |
|---|---|---|---|---|---|
| 2026-04-28 11:55 | 52.31285 | 4.75588 | 5 ft | 0 kts | 86° |
| 2026-04-28 11:57 | 52.31285 | 4.75587 | 4 ft | 0 kts | 86° |
| 2026-04-28 12:04 | 52.31285 | 4.75586 | 4 ft | 0 kts | 86° |
| 2026-04-28 12:11 | 52.31285 | 4.75585 | 4 ft | 0 kts | 86° |
| 2026-04-28 12:19 | 52.31285 | 4.75584 | 4 ft | 0 kts | 86° |
| 2026-04-28 12:25 | 52.31285 | 4.75583 | 4 ft | 0 kts | 86° |
| 2026-04-28 12:32 | 52.31285 | 4.75582 | 4 ft | 0 kts | 86° |
| 2026-04-28 12:35 | 52.31285 | 4.75575 | 5 ft | 3 kts | 86° |
| 2026-04-28 12:35 | 52.31282 | 4.75532 | 6 ft | 4 kts | 77° |
| 2026-04-28 12:36 | 52.31275 | 4.75492 | 7 ft | 4 kts | 59° |
| 2026-04-28 12:36 | 52.31263 | 4.75464 | 7 ft | 4 kts | 23° |
| 2026-04-28 12:36 | 52.31252 | 4.75457 | 7 ft | 0 kts | 356° |
| 2026-04-28 12:36 | 52.31269 | 4.75455 | 8 ft | 4 kts | 356° |
| 2026-04-28 12:37 | 52.31296 | 4.75453 | 5 ft | 4 kts | 356° |
| 2026-04-28 12:37 | 52.31323 | 4.75451 | 4 ft | 4 kts | 356° |
| 2026-04-28 12:37 | 52.31350 | 4.75448 | 4 ft | 3 kts | 356° |
| 2026-04-28 12:37 | 52.31354 | 4.75448 | 4 ft | 2 kts | 356° |
| 2026-04-28 12:38 | 52.31353 | 4.75448 | 4 ft | 0 kts | 356° |
| 2026-04-28 12:41 | 52.31362 | 4.75447 | 4 ft | 2 kts | 357° |
| 2026-04-28 12:41 | 52.31377 | 4.75446 | 4 ft | 2 kts | 358° |
| 2026-04-28 12:41 | 52.31392 | 4.75445 | 4 ft | 3 kts | 358° |
| 2026-04-28 12:41 | 52.31452 | 4.75443 | 5 ft | 16 kts | 359° |
| 2026-04-28 12:42 | 52.31505 | 4.75340 | 4 ft | 13 kts | 275° |
| 2026-04-28 12:42 | 52.31502 | 4.75148 | 4 ft | 20 kts | 267° |
| 2026-04-28 12:42 | 52.31494 | 4.74922 | 5 ft | 19 kts | 267° |
| 2026-04-28 12:42 | 52.31486 | 4.74700 | 5 ft | 21 kts | 266° |
| 2026-04-28 12:43 | 52.31476 | 4.74444 | 5 ft | 25 kts | 263° |
| 2026-04-28 12:43 | 52.31555 | 4.74299 | 5 ft | 19 kts | 3° |
| 2026-04-28 12:43 | 52.31721 | 4.74316 | 5 ft | 30 kts | 4° |
| 2026-04-28 12:43 | 52.31917 | 4.74330 | 5 ft | 27 kts | 4° |
| 2026-04-28 12:44 | 52.32034 | 4.74257 | 4 ft | 11 kts | 279° |
| 2026-04-28 12:44 | 52.32036 | 4.74136 | 4 ft | 10 kts | 271° |
| 2026-04-28 12:44 | 52.32037 | 4.74018 | 4 ft | 12 kts | 273° |
| 2026-04-28 12:44 | 52.32045 | 4.73817 | 5 ft | 22 kts | 273° |
| 2026-04-28 12:45 | 52.32053 | 4.73572 | 5 ft | 21 kts | 273° |
| 2026-04-28 12:45 | 52.32111 | 4.73327 | 5 ft | 25 kts | 315° |
| 2026-04-28 12:45 | 52.32239 | 4.73145 | 5 ft | 25 kts | 319° |
| 2026-04-28 12:45 | 52.32388 | 4.72936 | 5 ft | 30 kts | 319° |
| 2026-04-28 12:46 | 52.32540 | 4.72722 | 5 ft | 28 kts | 320° |
| 2026-04-28 12:46 | 52.32678 | 4.72522 | 5 ft | 26 kts | 316° |
| 2026-04-28 12:46 | 52.32790 | 4.72315 | 5 ft | 24 kts | 312° |
| 2026-04-28 12:46 | 52.32898 | 4.72119 | 5 ft | 22 kts | 313° |
| 2026-04-28 12:47 | 52.32992 | 4.71939 | 5 ft | 20 kts | 311° |
| 2026-04-28 12:47 | 52.33083 | 4.71774 | 5 ft | 19 kts | 312° |
| 2026-04-28 12:47 | 52.33146 | 4.71604 | 5 ft | 17 kts | 277° |
| 2026-04-28 12:47 | 52.33098 | 4.71451 | 5 ft | 15 kts | 223° |
| 2026-04-28 12:48 | 52.33021 | 4.71340 | 5 ft | 14 kts | 221° |
| 2026-04-28 12:48 | 52.32947 | 4.71235 | 5 ft | 14 kts | 221° |
| 2026-04-28 12:48 | 52.32878 | 4.71131 | 4 ft | 13 kts | 231° |
| 2026-04-28 12:48 | 52.32863 | 4.70992 | 4 ft | 13 kts | 274° |
| 2026-04-28 12:49 | 52.32904 | 4.70899 | 3 ft | 9 kts | 344° |
| 2026-04-28 12:49 | 52.32941 | 4.70900 | 3 ft | 0 kts | 4° |
| 2026-04-28 12:49 | 52.32942 | 4.70900 | 3 ft | 0 kts | 4° |
| 2026-04-28 12:49 | 52.32993 | 4.70904 | 2 ft | 23 kts | 3° |
| 2026-04-28 12:50 | 52.33330 | 4.70934 | 3 ft | 74 kts | 3° |
| 2026-04-28 12:50 | 52.34015 | 4.70998 | 4 ft | 122 kts | 3° |
| 2026-04-28 12:50 | 52.34989 | 4.71085 | 9 ft | 161 kts | 4° |
| 2026-04-28 12:50 | 52.36144 | 4.71168 | 329 ft | 170 kts | 4° |
| 2026-04-28 12:51 | 52.37363 | 4.71271 | 893 ft | 180 kts | 8° |
| 2026-04-28 12:51 | 52.38655 | 4.71409 | 1431 ft | 193 kts | 8° |
| 2026-04-28 12:51 | 52.40017 | 4.71556 | 2037 ft | 197 kts | 7° |
| 2026-04-28 12:51 | 52.41416 | 4.71633 | 2710 ft | 203 kts | 6° |
| 2026-04-28 12:52 | 52.42879 | 4.71480 | 3191 ft | 224 kts | 347° |
| 2026-04-28 12:52 | 52.44214 | 4.70033 | 3859 ft | 237 kts | 319° |
| 2026-04-28 12:52 | 52.45397 | 4.68082 | 4373 ft | 252 kts | 319° |
| 2026-04-28 12:52 | 52.46702 | 4.65964 | 4784 ft | 273 kts | 319° |
| 2026-04-28 12:53 | 52.48074 | 4.63753 | 5294 ft | 278 kts | 319° |
| 2026-04-28 12:53 | 52.49468 | 4.61476 | 5872 ft | 285 kts | 318° |
| 2026-04-28 12:53 | 52.50877 | 4.59153 | 6469 ft | 289 kts | 317° |
| 2026-04-28 12:53 | 52.52415 | 4.57052 | 7024 ft | 285 kts | 335° |
| 2026-04-28 12:54 | 52.54177 | 4.55506 | 7620 ft | 289 kts | 333° |
| 2026-04-28 12:54 | 52.55913 | 4.53817 | 8252 ft | 292 kts | 333° |
| 2026-04-28 12:54 | 52.57675 | 4.52122 | 8883 ft | 294 kts | 333° |
| 2026-04-28 12:54 | 52.59465 | 4.50450 | 9526 ft | 298 kts | 334° |
| 2026-04-28 12:55 | 52.61270 | 4.48765 | 10165 ft | 300 kts | 333° |
| 2026-04-28 12:55 | 52.63127 | 4.47016 | 10479 ft | 318 kts | 333° |
| 2026-04-28 12:55 | 52.65112 | 4.45144 | 10713 ft | 340 kts | 333° |
| 2026-04-28 12:55 | 52.67012 | 4.42639 | 10976 ft | 364 kts | 310° |
| 2026-04-28 12:56 | 52.68332 | 4.39031 | 11447 ft | 372 kts | 298° |
| 2026-04-28 12:56 | 52.69466 | 4.35166 | 12114 ft | 378 kts | 296° |
| 2026-04-28 12:56 | 52.70565 | 4.31196 | 12831 ft | 382 kts | 296° |
| 2026-04-28 12:56 | 52.71684 | 4.27247 | 13537 ft | 387 kts | 297° |
| 2026-04-28 12:57 | 52.72857 | 4.23219 | 14215 ft | 392 kts | 297° |
| 2026-04-28 12:57 | 52.74052 | 4.19087 | 14853 ft | 396 kts | 297° |
| 2026-04-28 12:57 | 52.75227 | 4.14952 | 15484 ft | 400 kts | 296° |
| 2026-04-28 12:57 | 52.76413 | 4.10776 | 16114 ft | 404 kts | 297° |
| 2026-04-28 12:58 | 52.77600 | 4.06620 | 16737 ft | 407 kts | 297° |
| 2026-04-28 12:58 | 52.78814 | 4.02364 | 17356 ft | 411 kts | 297° |
| 2026-04-28 12:58 | 52.80033 | 3.98068 | 17980 ft | 414 kts | 296° |
| 2026-04-28 12:58 | 52.81260 | 3.93734 | 18587 ft | 418 kts | 296° |
| 2026-04-28 12:59 | 52.82497 | 3.89362 | 19101 ft | 421 kts | 297° |
| 2026-04-28 12:59 | 52.83742 | 3.84956 | 19619 ft | 425 kts | 297° |
| 2026-04-28 12:59 | 52.84995 | 3.80510 | 20129 ft | 428 kts | 297° |
| 2026-04-28 12:59 | 52.86256 | 3.76026 | 20650 ft | 431 kts | 297° |
| 2026-04-28 13:00 | 52.87524 | 3.71510 | 21143 ft | 434 kts | 297° |
| 2026-04-28 13:00 | 52.88803 | 3.66947 | 21632 ft | 438 kts | 297° |
| 2026-04-28 13:00 | 52.90085 | 3.62360 | 22110 ft | 441 kts | 297° |
| 2026-04-28 13:00 | 52.91375 | 3.57740 | 22569 ft | 444 kts | 297° |
| 2026-04-28 13:01 | 52.92676 | 3.53069 | 23016 ft | 448 kts | 297° |
| 2026-04-28 13:01 | 52.93987 | 3.48353 | 23446 ft | 451 kts | 298° |
| 2026-04-28 13:01 | 52.95302 | 3.43613 | 23880 ft | 454 kts | 298° |
| 2026-04-28 13:01 | 52.96627 | 3.38827 | 24242 ft | 458 kts | 298° |
| 2026-04-28 13:02 | 52.97939 | 3.34076 | 24584 ft | 461 kts | 298° |
| 2026-04-28 13:02 | 52.99280 | 3.29216 | 24941 ft | 464 kts | 298° |
| 2026-04-28 13:02 | 53.00624 | 3.24330 | 25298 ft | 467 kts | 298° |
| 2026-04-28 13:02 | 53.01973 | 3.19414 | 25625 ft | 470 kts | 298° |
| 2026-04-28 13:03 | 53.03335 | 3.14443 | 25967 ft | 473 kts | 298° |
| 2026-04-28 13:03 | 53.04698 | 3.09457 | 26307 ft | 475 kts | 299° |
| 2026-04-28 13:03 | 53.06068 | 3.04437 | 26643 ft | 478 kts | 299° |
| 2026-04-28 13:03 | 53.07445 | 2.99377 | 26977 ft | 481 kts | 299° |
| 2026-04-28 13:04 | 53.08826 | 2.94291 | 27306 ft | 484 kts | 299° |
| 2026-04-28 13:04 | 53.10216 | 2.89162 | 27627 ft | 487 kts | 300° |
| 2026-04-28 13:04 | 53.11610 | 2.84005 | 27941 ft | 490 kts | 300° |
| 2026-04-28 13:04 | 53.12999 | 2.78855 | 28267 ft | 493 kts | 300° |
| 2026-04-28 13:05 | 53.14405 | 2.73635 | 28569 ft | 496 kts | 300° |
| 2026-04-28 13:05 | 53.15820 | 2.68364 | 28875 ft | 499 kts | 300° |
| 2026-04-28 13:05 | 53.17239 | 2.63068 | 29170 ft | 502 kts | 300° |
| 2026-04-28 13:05 | 53.18665 | 2.57734 | 29496 ft | 505 kts | 300° |
| 2026-04-28 13:06 | 53.20093 | 2.52375 | 29820 ft | 508 kts | 300° |
| 2026-04-28 13:06 | 53.21531 | 2.46973 | 30113 ft | 511 kts | 300° |
| 2026-04-28 13:06 | 53.22975 | 2.41535 | 30388 ft | 514 kts | 300° |
| 2026-04-28 13:06 | 53.24423 | 2.36064 | 30652 ft | 516 kts | 300° |
| 2026-04-28 13:07 | 53.25877 | 2.30557 | 30917 ft | 519 kts | 300° |
| 2026-04-28 13:07 | 53.27332 | 2.25035 | 31202 ft | 521 kts | 300° |
| 2026-04-28 13:07 | 53.28794 | 2.19474 | 31458 ft | 523 kts | 300° |
| 2026-04-28 13:07 | 53.29762 | 2.15784 | 31643 ft | 525 kts | 300° |
| 2026-04-28 13:08 | 53.31705 | 2.08358 | 32002 ft | 527 kts | 300° |
| 2026-04-28 13:08 | 53.33173 | 2.02729 | 32277 ft | 529 kts | 300° |
| 2026-04-28 13:08 | 53.34649 | 1.97060 | 32535 ft | 531 kts | 300° |
| 2026-04-28 13:08 | 53.36125 | 1.91374 | 32803 ft | 533 kts | 300° |
| 2026-04-28 13:09 | 53.37601 | 1.85673 | 33059 ft | 535 kts | 300° |
| 2026-04-28 13:09 | 53.39077 | 1.79956 | 33427 ft | 534 kts | 300° |
| 2026-04-28 13:09 | 53.40548 | 1.74243 | 33836 ft | 533 kts | 300° |
| 2026-04-28 13:09 | 53.42014 | 1.68539 | 34209 ft | 532 kts | 300° |
| 2026-04-28 13:10 | 53.43479 | 1.62828 | 34410 ft | 534 kts | 300° |
| 2026-04-28 13:10 | 53.46378 | 1.51458 | 34403 ft | 527 kts | 300° |
| 2026-04-28 13:11 | 53.49271 | 1.40096 | 34414 ft | 528 kts | 300° |
| 2026-04-28 13:11 | 53.52119 | 1.28812 | 34419 ft | 527 kts | 300° |
| 2026-04-28 13:12 | 53.54983 | 1.17435 | 34418 ft | 527 kts | 300° |
| 2026-04-28 13:12 | 53.57822 | 1.06079 | 34432 ft | 527 kts | 300° |
| 2026-04-28 13:13 | 53.60657 | 0.94695 | 34423 ft | 527 kts | 300° |
| 2026-04-28 13:13 | 53.63478 | 0.83300 | 34431 ft | 527 kts | 300° |
| 2026-04-28 13:14 | 53.66289 | 0.71889 | 34431 ft | 526 kts | 300° |
| 2026-04-28 13:14 | 53.69065 | 0.60565 | 34431 ft | 526 kts | 300° |
| 2026-04-28 13:15 | 53.71847 | 0.49155 | 34429 ft | 526 kts | 299° |
| 2026-04-28 13:15 | 53.74618 | 0.37726 | 34432 ft | 525 kts | 299° |
| 2026-04-28 13:16 | 53.77370 | 0.26321 | 34440 ft | 524 kts | 299° |
| 2026-04-28 13:16 | 53.80120 | 0.14864 | 34450 ft | 524 kts | 299° |
| 2026-04-28 13:17 | 53.82838 | 0.03477 | 34452 ft | 525 kts | 299° |
| 2026-04-28 13:17 | 53.85561 | -0.07986 | 34451 ft | 524 kts | 299° |
| 2026-04-28 13:18 | 53.88271 | -0.19461 | 34457 ft | 523 kts | 298° |
| 2026-04-28 13:18 | 53.90964 | -0.30923 | 34453 ft | 523 kts | 298° |
| 2026-04-28 13:19 | 53.93648 | -0.42405 | 34455 ft | 523 kts | 298° |
| 2026-04-28 13:19 | 53.96301 | -0.53818 | 34458 ft | 523 kts | 298° |
| 2026-04-28 13:20 | 53.98960 | -0.65318 | 34460 ft | 522 kts | 298° |
| 2026-04-28 13:20 | 54.01605 | -0.76820 | 34452 ft | 522 kts | 298° |
| 2026-04-28 13:21 | 54.04953 | -0.87544 | 34495 ft | 506 kts | 314° |
| 2026-04-28 13:21 | 54.09062 | -0.97315 | 34472 ft | 507 kts | 313° |
| 2026-04-28 13:22 | 54.13175 | -1.07056 | 34469 ft | 506 kts | 313° |
| 2026-04-28 13:22 | 54.16579 | -1.15184 | 34461 ft | 506 kts | 313° |
| 2026-04-28 13:23 | 54.20659 | -1.24944 | 34455 ft | 505 kts | 313° |
| 2026-04-28 13:23 | 54.25390 | -1.36313 | 34452 ft | 504 kts | 313° |
| 2026-04-28 13:24 | 54.28761 | -1.44443 | 34452 ft | 504 kts | 312° |
| 2026-04-28 13:24 | 54.32810 | -1.54245 | 34445 ft | 503 kts | 312° |
| 2026-04-28 13:25 | 54.36844 | -1.64049 | 34445 ft | 503 kts | 312° |
| 2026-04-28 13:25 | 54.40875 | -1.73885 | 34452 ft | 503 kts | 312° |
| 2026-04-28 13:26 | 54.44895 | -1.83734 | 34463 ft | 503 kts | 311° |
| 2026-04-28 13:26 | 54.48904 | -1.93593 | 34475 ft | 503 kts | 311° |
| 2026-04-28 13:27 | 54.52909 | -2.03483 | 34477 ft | 502 kts | 311° |
| 2026-04-28 13:27 | 54.56899 | -2.13375 | 34490 ft | 502 kts | 311° |
| 2026-04-28 13:28 | 54.60849 | -2.23206 | 34477 ft | 502 kts | 311° |
| 2026-04-28 13:28 | 54.64839 | -2.33175 | 34478 ft | 501 kts | 311° |
| 2026-04-28 13:29 | 54.68763 | -2.43021 | 34478 ft | 501 kts | 310° |
| 2026-04-28 13:29 | 54.72704 | -2.52948 | 34472 ft | 500 kts | 310° |
| 2026-04-28 13:30 | 54.76630 | -2.62876 | 34469 ft | 499 kts | 310° |
| 2026-04-28 13:30 | 54.80549 | -2.72827 | 34467 ft | 499 kts | 310° |
| 2026-04-28 13:31 | 54.86402 | -2.87762 | 34460 ft | 498 kts | 310° |
| 2026-04-28 13:31 | 54.90287 | -2.97728 | 34455 ft | 497 kts | 309° |
| 2026-04-28 13:32 | 54.94158 | -3.07696 | 34462 ft | 497 kts | 309° |
| 2026-04-28 13:32 | 54.97992 | -3.17609 | 34468 ft | 496 kts | 309° |
| 2026-04-28 13:33 | 55.01841 | -3.27601 | 34468 ft | 496 kts | 309° |
| 2026-04-28 13:33 | 55.05675 | -3.37593 | 34475 ft | 496 kts | 309° |
| 2026-04-28 13:34 | 55.09500 | -3.47606 | 34468 ft | 495 kts | 309° |
| 2026-04-28 13:34 | 55.13310 | -3.57617 | 34462 ft | 495 kts | 309° |
| 2026-04-28 13:35 | 55.17111 | -3.67644 | 34456 ft | 494 kts | 308° |
| 2026-04-28 13:35 | 55.20902 | -3.77686 | 34454 ft | 494 kts | 308° |
| 2026-04-28 13:36 | 55.24455 | -3.88058 | 34474 ft | 498 kts | 304° |
| 2026-04-28 13:36 | 55.27898 | -3.98582 | 34467 ft | 498 kts | 304° |
| 2026-04-28 13:37 | 55.31306 | -4.09146 | 34463 ft | 497 kts | 304° |
| 2026-04-28 13:37 | 55.34711 | -4.19694 | 34469 ft | 496 kts | 304° |
| 2026-04-28 13:38 | 55.38103 | -4.30275 | 34469 ft | 496 kts | 304° |
| 2026-04-28 13:38 | 55.41484 | -4.40857 | 34472 ft | 496 kts | 304° |
| 2026-04-28 13:39 | 55.44831 | -4.51382 | 34475 ft | 496 kts | 303° |
| 2026-04-28 13:39 | 55.48189 | -4.61989 | 34475 ft | 495 kts | 303° |
| 2026-04-28 13:40 | 55.51537 | -4.72610 | 34473 ft | 494 kts | 303° |
| 2026-04-28 13:40 | 55.54871 | -4.83234 | 34474 ft | 494 kts | 303° |
| 2026-04-28 13:41 | 55.58189 | -4.93852 | 34474 ft | 493 kts | 303° |
| 2026-04-28 13:41 | 55.61499 | -5.04494 | 34477 ft | 493 kts | 303° |
| 2026-04-28 13:42 | 55.64770 | -5.15059 | 34479 ft | 493 kts | 302° |
| 2026-04-28 13:42 | 55.68058 | -5.25725 | 34482 ft | 493 kts | 302° |
| 2026-04-28 13:43 | 55.71329 | -5.36384 | 34481 ft | 492 kts | 302° |
| 2026-04-28 13:43 | 55.74589 | -5.47055 | 34481 ft | 491 kts | 302° |
| 2026-04-28 13:44 | 55.77836 | -5.57729 | 34485 ft | 491 kts | 302° |
| 2026-04-28 13:44 | 55.79457 | -5.63076 | 33880 ft | 490 kts | 301° |
| 2026-04-28 13:44 | 55.81076 | -5.68408 | 33991 ft | 492 kts | 298° |
| 2026-04-28 13:45 | 55.84328 | -5.79236 | 33999 ft | 497 kts | 298° |
| 2026-04-28 13:45 | 55.87591 | -5.90088 | 34003 ft | 497 kts | 297° |
| 2026-04-28 13:46 | 55.90837 | -6.00971 | 34005 ft | 498 kts | 297° |
| 2026-04-28 13:46 | 55.94061 | -6.11810 | 34008 ft | 498 kts | 297° |
| 2026-04-28 13:47 | 55.97289 | -6.22725 | 34008 ft | 497 kts | 297° |
| 2026-04-28 13:47 | 56.00508 | -6.33652 | 34007 ft | 497 kts | 297° |
| 2026-04-28 13:48 | 56.03715 | -6.44597 | 34007 ft | 496 kts | 297° |
| 2026-04-28 13:48 | 56.06912 | -6.55552 | 34007 ft | 496 kts | 297° |
| 2026-04-28 13:49 | 56.10096 | -6.66519 | 34007 ft | 496 kts | 297° |
| 2026-04-28 13:49 | 56.13266 | -6.77485 | 34007 ft | 496 kts | 297° |
| 2026-04-28 13:50 | 56.16413 | -6.88425 | 34007 ft | 496 kts | 297° |
| 2026-04-28 13:50 | 56.19567 | -6.99442 | 34007 ft | 496 kts | 297° |
| 2026-04-28 13:51 | 56.22712 | -7.10481 | 34007 ft | 496 kts | 297° |
| 2026-04-28 13:51 | 56.25852 | -7.21551 | 34007 ft | 496 kts | 296° |
| 2026-04-28 13:52 | 56.28957 | -7.32552 | 34007 ft | 496 kts | 296° |
| 2026-04-28 13:52 | 56.32073 | -7.43646 | 34007 ft | 496 kts | 296° |
| 2026-04-28 13:53 | 56.35184 | -7.54774 | 34007 ft | 496 kts | 296° |
| 2026-04-28 13:53 | 56.38280 | -7.65904 | 34007 ft | 496 kts | 296° |
| 2026-04-28 13:54 | 56.41349 | -7.76992 | 34007 ft | 496 kts | 296° |
| 2026-04-28 13:54 | 56.44427 | -7.88163 | 34007 ft | 496 kts | 296° |
| 2026-04-28 13:55 | 56.47491 | -7.99339 | 34007 ft | 496 kts | 296° |
| 2026-04-28 13:55 | 56.50554 | -8.10568 | 34007 ft | 496 kts | 296° |
| 2026-04-28 13:56 | 56.53581 | -8.21716 | 34007 ft | 496 kts | 296° |
| 2026-04-28 13:56 | 56.56617 | -8.32956 | 34007 ft | 496 kts | 296° |
| 2026-04-28 13:57 | 56.59642 | -8.44208 | 34007 ft | 496 kts | 295° |
| 2026-04-28 13:57 | 56.62657 | -8.55479 | 34007 ft | 496 kts | 295° |
| 2026-04-28 13:58 | 56.65663 | -8.66774 | 34007 ft | 496 kts | 295° |
| 2026-04-28 13:58 | 56.68661 | -8.78097 | 34007 ft | 496 kts | 295° |
| 2026-04-28 13:59 | 56.71629 | -8.89357 | 34007 ft | 496 kts | 295° |
| 2026-04-28 13:59 | 56.74605 | -9.00708 | 34007 ft | 496 kts | 295° |
| 2026-04-28 14:00 | 56.77569 | -9.12073 | 34007 ft | 496 kts | 295° |
| 2026-04-28 14:00 | 56.80525 | -9.23462 | 34007 ft | 496 kts | 295° |
| 2026-04-28 14:01 | 56.83470 | -9.34866 | 34007 ft | 496 kts | 295° |
| 2026-04-28 14:01 | 56.86384 | -9.46211 | 34007 ft | 496 kts | 295° |
| 2026-04-28 14:02 | 56.89307 | -9.57644 | 34007 ft | 496 kts | 295° |
| 2026-04-28 14:02 | 56.92221 | -9.69105 | 34007 ft | 496 kts | 294° |
| 2026-04-28 14:03 | 56.95123 | -9.80575 | 34007 ft | 496 kts | 294° |
| 2026-04-28 14:03 | 56.98012 | -9.92056 | 34008 ft | 496 kts | 294° |
| 2026-04-28 14:04 | 57.01057 | -10.03419 | 34020 ft | 496 kts | 299° |
| 2026-04-28 14:04 | 57.04469 | -10.14469 | 34011 ft | 497 kts | 299° |
| 2026-04-28 14:05 | 57.07867 | -10.25548 | 34011 ft | 497 kts | 299° |
| 2026-04-28 14:05 | 57.11254 | -10.36632 | 34011 ft | 497 kts | 299° |
| 2026-04-28 14:06 | 57.14633 | -10.47749 | 34009 ft | 497 kts | 299° |
| 2026-04-28 14:06 | 57.17979 | -10.58806 | 34008 ft | 497 kts | 298° |
| 2026-04-28 14:07 | 57.21338 | -10.69959 | 34008 ft | 497 kts | 298° |
| 2026-04-28 14:07 | 57.24687 | -10.81136 | 34008 ft | 497 kts | 298° |
| 2026-04-28 14:08 | 57.28024 | -10.92321 | 34008 ft | 497 kts | 298° |
| 2026-04-28 14:08 | 57.30790 | -11.01635 | 34008 ft | 497 kts | 298° |
| 2026-04-28 14:09 | 57.34670 | -11.14762 | 34008 ft | 497 kts | 298° |
| 2026-04-28 14:09 | 57.37975 | -11.26005 | 34008 ft | 497 kts | 298° |
| 2026-04-28 14:10 | 57.41268 | -11.37258 | 34008 ft | 496 kts | 298° |
| 2026-04-28 14:10 | 57.44532 | -11.48469 | 34008 ft | 496 kts | 298° |
| 2026-04-28 14:11 | 57.47806 | -11.59765 | 34008 ft | 496 kts | 298° |
| 2026-04-28 14:11 | 57.51069 | -11.71083 | 34011 ft | 496 kts | 298° |
| 2026-04-28 14:12 | 57.54323 | -11.82421 | 34006 ft | 497 kts | 297° |
| 2026-04-28 14:12 | 57.57023 | -11.91873 | 34010 ft | 498 kts | 297° |
| 2026-04-28 14:13 | 57.60267 | -12.03264 | 34484 ft | 494 kts | 296° |
| 2026-04-28 14:13 | 57.61851 | -12.08859 | 34428 ft | 481 kts | 295° |
| 2026-04-28 14:13 | 57.63899 | -12.16124 | 34424 ft | 477 kts | 295° |
| 2026-04-28 14:14 | 57.66503 | -12.25375 | 34433 ft | 482 kts | 295° |
| 2026-04-28 14:14 | 57.69611 | -12.36456 | 34428 ft | 482 kts | 295° |
| 2026-04-28 14:15 | 57.72711 | -12.47575 | 34431 ft | 482 kts | 295° |
| 2026-04-28 14:15 | 57.75802 | -12.58709 | 34431 ft | 482 kts | 295° |
| 2026-04-28 14:16 | 57.78869 | -12.69814 | 34424 ft | 482 kts | 295° |
| 2026-04-28 14:16 | 57.81942 | -12.80990 | 34420 ft | 483 kts | 295° |
| 2026-04-28 14:17 | 57.85011 | -12.92211 | 34417 ft | 483 kts | 295° |
| 2026-04-28 14:17 | 57.88067 | -13.03440 | 34415 ft | 483 kts | 295° |
| 2026-04-28 14:18 | 57.91114 | -13.14690 | 34402 ft | 483 kts | 294° |
| 2026-04-28 14:18 | 57.94157 | -13.25979 | 34400 ft | 483 kts | 294° |
| 2026-04-28 14:19 | 57.97165 | -13.37198 | 34401 ft | 483 kts | 294° |
| 2026-04-28 14:19 | 58.00184 | -13.48511 | 34403 ft | 483 kts | 294° |
| 2026-04-28 14:20 | 58.03193 | -13.59843 | 34396 ft | 483 kts | 294° |
| 2026-04-28 14:20 | 58.06186 | -13.71177 | 34391 ft | 483 kts | 294° |
| 2026-04-28 14:21 | 58.09174 | -13.82543 | 34387 ft | 483 kts | 293° |
| 2026-04-28 14:21 | 58.12153 | -13.93936 | 34383 ft | 483 kts | 293° |
| 2026-04-28 14:22 | 58.15121 | -14.05345 | 34376 ft | 482 kts | 293° |
| 2026-04-28 14:22 | 58.18076 | -14.16761 | 34372 ft | 482 kts | 292° |
| 2026-04-28 14:23 | 58.21018 | -14.28185 | 34368 ft | 482 kts | 292° |
| 2026-04-28 14:23 | 58.23952 | -14.39636 | 34362 ft | 482 kts | 292° |
| 2026-04-28 14:24 | 58.26859 | -14.51041 | 34358 ft | 482 kts | 292° |
| 2026-04-28 14:24 | 58.29768 | -14.62511 | 34351 ft | 481 kts | 292° |
| 2026-04-28 14:25 | 58.32664 | -14.73990 | 34348 ft | 481 kts | 291° |
| 2026-04-28 14:25 | 58.35548 | -14.85483 | 34344 ft | 480 kts | 291° |
| 2026-04-28 14:26 | 58.38417 | -14.96974 | 34334 ft | 480 kts | 291° |
| 2026-04-28 14:26 | 58.41270 | -15.08463 | 34339 ft | 479 kts | 291° |
| 2026-04-28 14:27 | 58.44113 | -15.19970 | 34332 ft | 479 kts | 291° |
| 2026-04-28 14:27 | 58.46921 | -15.31394 | 34328 ft | 478 kts | 290° |
| 2026-04-28 14:28 | 58.49741 | -15.42928 | 34322 ft | 478 kts | 290° |
| 2026-04-28 14:28 | 58.52544 | -15.54454 | 34310 ft | 478 kts | 290° |
| 2026-04-28 14:29 | 58.55340 | -15.66012 | 34312 ft | 478 kts | 290° |
| 2026-04-28 14:29 | 58.58120 | -15.77565 | 34308 ft | 478 kts | 290° |
| 2026-04-28 14:30 | 58.60891 | -15.89142 | 34298 ft | 477 kts | 290° |
| 2026-04-28 14:30 | 58.63632 | -16.00655 | 34296 ft | 477 kts | 289° |
| 2026-04-28 14:31 | 58.66380 | -16.12258 | 34283 ft | 477 kts | 289° |
| 2026-04-28 14:31 | 58.69119 | -16.23886 | 34282 ft | 477 kts | 289° |
| 2026-04-28 14:32 | 58.71842 | -16.35512 | 34279 ft | 476 kts | 289° |
| 2026-04-28 14:32 | 58.74555 | -16.47153 | 34278 ft | 476 kts | 289° |
| 2026-04-28 14:33 | 58.77241 | -16.58742 | 34268 ft | 476 kts | 288° |
| 2026-04-28 14:33 | 58.79930 | -16.70407 | 34271 ft | 476 kts | 288° |
| 2026-04-28 14:34 | 58.83940 | -16.87924 | 34257 ft | 475 kts | 288° |
| 2026-04-28 14:35 | 58.86597 | -16.99609 | 34253 ft | 475 kts | 288° |
| 2026-04-28 14:35 | 58.89245 | -17.11325 | 34246 ft | 476 kts | 287° |
| 2026-04-28 14:36 | 58.91869 | -17.22991 | 34241 ft | 476 kts | 287° |
| 2026-04-28 14:36 | 58.94499 | -17.34753 | 34240 ft | 476 kts | 287° |
| 2026-04-28 14:37 | 58.97118 | -17.46531 | 34227 ft | 476 kts | 287° |
| 2026-04-28 14:37 | 58.99727 | -17.58328 | 34223 ft | 475 kts | 286° |
| 2026-04-28 14:38 | 59.02324 | -17.70142 | 34218 ft | 475 kts | 286° |
| 2026-04-28 14:38 | 59.04910 | -17.81968 | 34211 ft | 475 kts | 285° |
| 2026-04-28 14:39 | 59.07466 | -17.93728 | 34212 ft | 475 kts | 285° |
| 2026-04-28 14:39 | 59.10028 | -18.05577 | 34205 ft | 475 kts | 285° |
| 2026-04-28 14:40 | 59.12571 | -18.17409 | 34200 ft | 473 kts | 285° |
| 2026-04-28 14:40 | 59.15099 | -18.29236 | 34198 ft | 472 kts | 285° |
| 2026-04-28 14:41 | 59.17611 | -18.41060 | 34188 ft | 471 kts | 284° |
| 2026-04-28 14:41 | 59.20105 | -18.52866 | 34182 ft | 470 kts | 284° |
| 2026-04-28 14:42 | 59.22585 | -18.64669 | 34181 ft | 469 kts | 284° |
| 2026-04-28 14:42 | 59.25051 | -18.76480 | 34179 ft | 469 kts | 284° |
| 2026-04-28 14:43 | 59.27487 | -18.88210 | 34164 ft | 468 kts | 283° |
| 2026-04-28 14:43 | 59.29923 | -19.00010 | 34163 ft | 468 kts | 283° |
| 2026-04-28 14:44 | 59.32349 | -19.11832 | 34155 ft | 467 kts | 283° |
| 2026-04-28 14:44 | 59.34764 | -19.23665 | 34154 ft | 467 kts | 283° |
| 2026-04-28 14:45 | 59.37162 | -19.35486 | 34143 ft | 467 kts | 283° |
| 2026-04-28 14:45 | 59.39551 | -19.47330 | 34148 ft | 466 kts | 282° |
| 2026-04-28 14:46 | 59.41911 | -19.59101 | 34121 ft | 466 kts | 282° |
| 2026-04-28 14:46 | 59.44274 | -19.70961 | 34130 ft | 466 kts | 282° |
| 2026-04-28 14:47 | 59.46627 | -19.82837 | 34131 ft | 466 kts | 282° |
| 2026-04-28 14:47 | 59.48968 | -19.94719 | 34122 ft | 466 kts | 282° |
| 2026-04-28 14:47 | 59.50383 | -20.00539 | 34123 ft | 477 kts | 291° |
| 2026-04-28 14:48 | 59.52242 | -20.06057 | 34119 ft | 487 kts | 296° |
| 2026-04-28 14:48 | 59.56194 | -20.16825 | 34106 ft | 488 kts | 296° |
| 2026-04-28 14:49 | 59.60169 | -20.27665 | 34108 ft | 487 kts | 295° |
| 2026-04-28 14:49 | 59.64122 | -20.38526 | 34097 ft | 487 kts | 295° |
| 2026-04-28 14:50 | 59.68073 | -20.49411 | 34097 ft | 487 kts | 295° |
| 2026-04-28 14:50 | 59.72017 | -20.60342 | 34073 ft | 488 kts | 295° |
| 2026-04-28 14:51 | 59.75958 | -20.71305 | 34080 ft | 488 kts | 294° |
| 2026-04-28 14:51 | 59.79888 | -20.82297 | 34076 ft | 488 kts | 294° |
| 2026-04-28 14:52 | 59.83783 | -20.93239 | 34076 ft | 488 kts | 294° |
| 2026-04-28 14:52 | 59.87697 | -21.04283 | 34063 ft | 488 kts | 294° |
| 2026-04-28 14:53 | 59.91600 | -21.15353 | 34062 ft | 488 kts | 294° |
| 2026-04-28 14:53 | 59.95498 | -21.26459 | 34062 ft | 488 kts | 293° |
| 2026-04-28 14:54 | 59.99381 | -21.37574 | 34052 ft | 488 kts | 293° |
| 2026-04-28 14:54 | 60.03255 | -21.48717 | 34053 ft | 487 kts | 293° |
| 2026-04-28 14:55 | 60.07107 | -21.59851 | 34049 ft | 487 kts | 293° |
| 2026-04-28 14:55 | 60.10950 | -21.71009 | 34045 ft | 485 kts | 292° |
| 2026-04-28 14:56 | 60.14774 | -21.82170 | 34030 ft | 485 kts | 292° |
| 2026-04-28 14:56 | 60.18587 | -21.93347 | 34036 ft | 485 kts | 292° |
| 2026-04-28 14:57 | 60.22387 | -22.04543 | 34041 ft | 484 kts | 292° |
| 2026-04-28 14:57 | 60.26146 | -22.15670 | 34030 ft | 484 kts | 292° |
| 2026-04-28 14:58 | 60.29920 | -22.26892 | 34026 ft | 483 kts | 292° |
| 2026-04-28 14:58 | 60.33679 | -22.38129 | 34021 ft | 482 kts | 291° |
| 2026-04-28 14:59 | 60.37420 | -22.49368 | 34418 ft | 481 kts | 292° |
| 2026-04-28 14:59 | 60.39284 | -22.54979 | 34794 ft | 479 kts | 292° |
| 2026-04-28 14:59 | 60.41140 | -22.60585 | 35123 ft | 478 kts | 292° |
| 2026-04-28 14:59 | 60.42985 | -22.66179 | 35444 ft | 478 kts | 292° |
| 2026-04-28 15:00 | 60.44827 | -22.71775 | 35746 ft | 478 kts | 292° |
| 2026-04-28 15:00 | 60.46670 | -22.77381 | 35992 ft | 479 kts | 293° |
| 2026-04-28 15:00 | 60.48496 | -22.82960 | 36000 ft | 482 kts | 293° |
| 2026-04-28 15:01 | 60.52185 | -22.94231 | 35988 ft | 478 kts | 292° |
| 2026-04-28 15:01 | 60.55256 | -23.03696 | 35991 ft | 479 kts | 292° |
| 2026-04-28 15:02 | 60.58924 | -23.15013 | 35997 ft | 478 kts | 292° |
| 2026-04-28 15:02 | 60.62568 | -23.26336 | 35994 ft | 478 kts | 292° |
| 2026-04-28 15:03 | 60.66205 | -23.37676 | 35976 ft | 478 kts | 292° |
| 2026-04-28 15:03 | 60.69833 | -23.49051 | 35989 ft | 478 kts | 292° |
| 2026-04-28 15:04 | 60.73430 | -23.60382 | 35980 ft | 478 kts | 292° |
| 2026-04-28 15:04 | 60.77034 | -23.71786 | 35982 ft | 476 kts | 292° |
| 2026-04-28 15:05 | 60.80624 | -23.83217 | 35975 ft | 477 kts | 291° |
| 2026-04-28 15:05 | 60.84215 | -23.94694 | 35976 ft | 480 kts | 291° |
| 2026-04-28 15:06 | 60.87812 | -24.06256 | 35956 ft | 480 kts | 291° |
| 2026-04-28 15:06 | 60.91394 | -24.17818 | 35967 ft | 480 kts | 291° |
| 2026-04-28 15:07 | 60.94971 | -24.29435 | 35960 ft | 481 kts | 291° |
| 2026-04-28 15:07 | 60.98527 | -24.41029 | 35951 ft | 482 kts | 291° |
| 2026-04-28 15:08 | 61.02099 | -24.52743 | 35939 ft | 482 kts | 291° |
| 2026-04-28 15:08 | 61.05663 | -24.64485 | 35945 ft | 483 kts | 291° |
| 2026-04-28 15:09 | 61.09224 | -24.76281 | 35937 ft | 484 kts | 291° |
| 2026-04-28 15:09 | 61.12775 | -24.88103 | 35930 ft | 484 kts | 291° |
| 2026-04-28 15:10 | 61.16296 | -24.99885 | 35923 ft | 484 kts | 291° |
| 2026-04-28 15:10 | 61.19830 | -25.11775 | 35919 ft | 484 kts | 291° |
| 2026-04-28 15:11 | 61.23352 | -25.23688 | 35916 ft | 484 kts | 291° |
| 2026-04-28 15:11 | 61.26868 | -25.35636 | 35912 ft | 485 kts | 291° |
| 2026-04-28 15:12 | 61.30374 | -25.47618 | 35897 ft | 486 kts | 291° |
| 2026-04-28 15:12 | 61.33880 | -25.59659 | 35898 ft | 486 kts | 291° |
| 2026-04-28 15:13 | 61.37373 | -25.71722 | 35893 ft | 486 kts | 291° |
| 2026-04-28 15:13 | 61.40862 | -25.83834 | 35886 ft | 487 kts | 291° |
| 2026-04-28 15:14 | 61.44321 | -25.95906 | 35878 ft | 487 kts | 291° |
| 2026-04-28 15:14 | 61.47793 | -26.08088 | 35871 ft | 487 kts | 291° |
| 2026-04-28 15:15 | 61.51253 | -26.20294 | 35874 ft | 487 kts | 291° |
| 2026-04-28 15:15 | 61.54699 | -26.32512 | 35856 ft | 487 kts | 291° |
| 2026-04-28 15:16 | 61.58135 | -26.44764 | 35852 ft | 487 kts | 291° |
| 2026-04-28 15:16 | 61.61558 | -26.57039 | 35848 ft | 487 kts | 291° |
| 2026-04-28 15:17 | 61.64978 | -26.69367 | 35847 ft | 487 kts | 291° |
| 2026-04-28 15:17 | 61.68380 | -26.81696 | 35828 ft | 487 kts | 291° |
| 2026-04-28 15:18 | 61.71753 | -26.93989 | 35826 ft | 487 kts | 291° |
| 2026-04-28 15:18 | 61.75136 | -27.06383 | 35821 ft | 487 kts | 291° |
| 2026-04-28 15:19 | 61.78508 | -27.18808 | 35814 ft | 487 kts | 291° |
| 2026-04-28 15:19 | 61.81866 | -27.31250 | 35809 ft | 487 kts | 291° |
| 2026-04-28 15:20 | 61.85217 | -27.43734 | 35798 ft | 487 kts | 291° |
| 2026-04-28 15:20 | 61.88552 | -27.56229 | 35794 ft | 487 kts | 291° |
| 2026-04-28 15:21 | 61.91881 | -27.68771 | 35784 ft | 488 kts | 291° |
| 2026-04-28 15:21 | 61.95200 | -27.81346 | 35766 ft | 488 kts | 291° |
| 2026-04-28 15:22 | 61.98516 | -27.93981 | 35762 ft | 490 kts | 291° |
| 2026-04-28 15:22 | 62.01829 | -28.06673 | 35756 ft | 491 kts | 291° |
| 2026-04-28 15:23 | 62.05132 | -28.19404 | 35752 ft | 491 kts | 291° |
| 2026-04-28 15:23 | 62.08407 | -28.32094 | 35743 ft | 492 kts | 290° |
| 2026-04-28 15:24 | 62.11696 | -28.44917 | 35732 ft | 492 kts | 290° |
| 2026-04-28 15:24 | 62.14974 | -28.57768 | 35722 ft | 492 kts | 290° |
| 2026-04-28 15:25 | 62.18240 | -28.70649 | 35717 ft | 492 kts | 290° |
| 2026-04-28 15:25 | 62.21492 | -28.83546 | 35707 ft | 492 kts | 290° |
| 2026-04-28 15:26 | 62.24729 | -28.96462 | 35694 ft | 491 kts | 290° |
| 2026-04-28 15:26 | 62.27954 | -29.09406 | 35684 ft | 491 kts | 290° |
| 2026-04-28 15:27 | 62.31167 | -29.22374 | 35682 ft | 491 kts | 290° |
| 2026-04-28 15:27 | 62.34344 | -29.35276 | 35673 ft | 491 kts | 290° |
| 2026-04-28 15:28 | 62.37531 | -29.48295 | 35657 ft | 491 kts | 290° |
| 2026-04-28 15:28 | 62.40704 | -29.61335 | 35653 ft | 491 kts | 290° |
| 2026-04-28 15:29 | 62.43864 | -29.74398 | 35642 ft | 491 kts | 290° |
| 2026-04-28 15:29 | 62.47011 | -29.87481 | 35630 ft | 490 kts | 290° |
| 2026-04-28 15:30 | 62.50120 | -30.00623 | 35624 ft | 487 kts | 285° |
| 2026-04-28 15:30 | 62.52725 | -30.14064 | 35617 ft | 488 kts | 286° |
| 2026-04-28 15:31 | 62.55347 | -30.27626 | 35607 ft | 487 kts | 285° |
| 2026-04-28 15:31 | 62.57940 | -30.41221 | 35593 ft | 488 kts | 285° |
| 2026-04-28 15:32 | 62.60532 | -30.54839 | 35588 ft | 488 kts | 285° |
| 2026-04-28 15:32 | 62.63106 | -30.68497 | 35574 ft | 488 kts | 285° |
| 2026-04-28 15:33 | 62.65675 | -30.82193 | 35568 ft | 489 kts | 285° |
| 2026-04-28 15:33 | 62.68230 | -30.95929 | 35558 ft | 490 kts | 285° |
| 2026-04-28 15:34 | 62.70774 | -31.09692 | 35549 ft | 490 kts | 285° |
| 2026-04-28 15:34 | 62.73287 | -31.23388 | 35539 ft | 490 kts | 285° |
| 2026-04-28 15:35 | 62.75807 | -31.37216 | 35524 ft | 489 kts | 285° |
| 2026-04-28 15:35 | 62.79555 | -31.57971 | 35521 ft | 489 kts | 285° |
| 2026-04-28 15:36 | 62.82033 | -31.71813 | 35503 ft | 489 kts | 285° |
| 2026-04-28 15:36 | 62.84480 | -31.85583 | 35489 ft | 488 kts | 285° |
| 2026-04-28 15:37 | 62.86932 | -31.99482 | 35491 ft | 488 kts | 285° |
| 2026-04-28 15:37 | 62.88956 | -32.11026 | 35487 ft | 488 kts | 285° |
| 2026-04-28 15:38 | 62.91787 | -32.27297 | 35477 ft | 487 kts | 285° |
| 2026-04-28 15:38 | 62.94189 | -32.41214 | 35465 ft | 488 kts | 285° |
| 2026-04-28 15:39 | 62.96563 | -32.55068 | 35455 ft | 488 kts | 284° |
| 2026-04-28 15:39 | 62.98939 | -32.69038 | 35447 ft | 488 kts | 284° |
| 2026-04-28 15:40 | 63.01307 | -32.83062 | 35446 ft | 489 kts | 284° |
| 2026-04-28 15:40 | 63.03663 | -32.97120 | 35435 ft | 489 kts | 284° |
| 2026-04-28 15:41 | 63.06009 | -33.11229 | 35434 ft | 489 kts | 284° |
| 2026-04-28 15:41 | 63.08337 | -33.25332 | 35425 ft | 489 kts | 284° |
| 2026-04-28 15:42 | 63.10651 | -33.39462 | 35416 ft | 489 kts | 284° |
| 2026-04-28 15:42 | 63.12937 | -33.53526 | 35413 ft | 489 kts | 284° |
| 2026-04-28 15:43 | 63.15224 | -33.67706 | 35405 ft | 489 kts | 284° |
| 2026-04-28 15:43 | 63.17499 | -33.81919 | 35407 ft | 489 kts | 284° |
| 2026-04-28 15:44 | 63.19757 | -33.96140 | 35403 ft | 489 kts | 284° |
| 2026-04-28 15:44 | 63.22000 | -34.10375 | 35396 ft | 489 kts | 284° |
| 2026-04-28 15:45 | 63.24227 | -34.24626 | 35394 ft | 489 kts | 284° |
| 2026-04-28 15:45 | 63.26441 | -34.38902 | 35388 ft | 489 kts | 284° |
| 2026-04-28 15:46 | 63.28640 | -34.53196 | 35376 ft | 489 kts | 284° |
| 2026-04-28 15:46 | 63.30825 | -34.67518 | 35378 ft | 489 kts | 284° |
| 2026-04-28 15:47 | 63.32998 | -34.81875 | 35382 ft | 489 kts | 284° |
| 2026-04-28 15:47 | 63.34792 | -34.93818 | 35376 ft | 489 kts | 284° |
| 2026-04-28 15:48 | 63.36937 | -35.08205 | 35372 ft | 489 kts | 284° |
| 2026-04-28 15:48 | 63.39069 | -35.22621 | 35378 ft | 489 kts | 284° |
| 2026-04-28 15:49 | 63.41187 | -35.37064 | 35374 ft | 489 kts | 284° |
| 2026-04-28 15:49 | 63.43276 | -35.51428 | 35365 ft | 489 kts | 284° |
| 2026-04-28 15:50 | 63.45365 | -35.65915 | 35364 ft | 489 kts | 284° |
| 2026-04-28 15:50 | 63.47437 | -35.80406 | 35363 ft | 489 kts | 283° |
| 2026-04-28 15:51 | 63.49495 | -35.94921 | 35361 ft | 489 kts | 283° |
| 2026-04-28 15:51 | 63.51538 | -36.09460 | 35359 ft | 489 kts | 283° |
| 2026-04-28 15:52 | 63.53567 | -36.24019 | 35360 ft | 489 kts | 283° |
| 2026-04-28 15:52 | 63.55579 | -36.38584 | 35362 ft | 489 kts | 283° |
| 2026-04-28 15:53 | 63.56575 | -36.45874 | 33976 ft | 487 kts | 287° |
| 2026-04-28 15:53 | 63.57543 | -36.52970 | 34112 ft | 479 kts | 287° |
| 2026-04-28 15:53 | 63.58527 | -36.60147 | 34248 ft | 482 kts | 287° |
| 2026-04-28 15:53 | 63.59508 | -36.67377 | 34379 ft | 486 kts | 287° |
| 2026-04-28 15:54 | 63.60487 | -36.74671 | 34514 ft | 489 kts | 286° |
| 2026-04-28 15:54 | 63.61472 | -36.82013 | 34647 ft | 492 kts | 286° |
| 2026-04-28 15:54 | 63.62460 | -36.89390 | 34776 ft | 494 kts | 286° |
| 2026-04-28 15:54 | 63.63446 | -36.96795 | 34908 ft | 494 kts | 286° |
| 2026-04-28 15:55 | 63.64426 | -37.04204 | 35036 ft | 494 kts | 286° |
| 2026-04-28 15:55 | 63.65402 | -37.11615 | 35159 ft | 493 kts | 286° |
| 2026-04-28 15:55 | 63.66374 | -37.19018 | 35290 ft | 493 kts | 286° |
| 2026-04-28 15:55 | 63.67342 | -37.26427 | 35403 ft | 493 kts | 286° |
| 2026-04-28 15:56 | 63.68307 | -37.33849 | 35528 ft | 493 kts | 286° |
| 2026-04-28 15:56 | 63.69269 | -37.41286 | 35653 ft | 493 kts | 286° |
| 2026-04-28 15:56 | 63.70224 | -37.48699 | 35764 ft | 492 kts | 286° |
| 2026-04-28 15:56 | 63.71175 | -37.56117 | 35890 ft | 492 kts | 285° |
| 2026-04-28 15:57 | 63.72124 | -37.63555 | 36002 ft | 492 kts | 285° |
| 2026-04-28 15:57 | 63.73069 | -37.70992 | 35995 ft | 492 kts | 285° |
| 2026-04-28 15:57 | 63.74936 | -37.85793 | 35993 ft | 489 kts | 285° |
| 2026-04-28 15:58 | 63.76785 | -38.00601 | 35990 ft | 490 kts | 285° |
| 2026-04-28 15:58 | 63.78611 | -38.15354 | 35996 ft | 490 kts | 285° |
| 2026-04-28 15:59 | 63.80434 | -38.30234 | 35989 ft | 490 kts | 285° |
| 2026-04-28 15:59 | 63.82242 | -38.45130 | 35993 ft | 490 kts | 285° |
| 2026-04-28 16:00 | 63.84036 | -38.60055 | 35994 ft | 490 kts | 285° |
| 2026-04-28 16:00 | 63.85814 | -38.74995 | 35992 ft | 490 kts | 284° |
| 2026-04-28 16:01 | 63.87564 | -38.89849 | 35993 ft | 490 kts | 284° |
| 2026-04-28 16:01 | 63.89311 | -39.04829 | 35994 ft | 490 kts | 284° |
| 2026-04-28 16:02 | 63.91042 | -39.19821 | 35991 ft | 490 kts | 284° |
| 2026-04-28 16:02 | 63.92757 | -39.34823 | 35992 ft | 490 kts | 284° |
| 2026-04-28 16:03 | 63.94458 | -39.49863 | 35990 ft | 490 kts | 284° |
| 2026-04-28 16:03 | 63.96142 | -39.64904 | 35992 ft | 490 kts | 284° |
| 2026-04-28 16:04 | 63.97809 | -39.79956 | 35990 ft | 490 kts | 284° |
| 2026-04-28 16:04 | 63.99461 | -39.95025 | 35993 ft | 490 kts | 283° |
| 2026-04-28 16:05 | 64.01393 | -40.09917 | 36008 ft | 490 kts | 287° |
| 2026-04-28 16:05 | 64.03393 | -40.24697 | 36011 ft | 491 kts | 287° |
| 2026-04-28 16:06 | 64.05434 | -40.39578 | 36012 ft | 491 kts | 287° |
| 2026-04-28 16:06 | 64.07436 | -40.54485 | 36011 ft | 491 kts | 287° |
| 2026-04-28 16:07 | 64.09434 | -40.69409 | 36012 ft | 490 kts | 287° |
| 2026-04-28 16:08 | 64.12396 | -40.91835 | 36012 ft | 490 kts | 286° |
| 2026-04-28 16:08 | 64.14348 | -41.06774 | 36009 ft | 490 kts | 286° |
| 2026-04-28 16:09 | 64.17244 | -41.29209 | 36008 ft | 489 kts | 286° |
| 2026-04-28 16:10 | 64.20110 | -41.51721 | 36009 ft | 490 kts | 286° |
| 2026-04-28 16:10 | 64.22935 | -41.74235 | 36010 ft | 491 kts | 285° |
| 2026-04-28 16:11 | 64.26665 | -42.04455 | 36008 ft | 491 kts | 285° |
| 2026-04-28 16:12 | 64.29417 | -42.27146 | 36011 ft | 490 kts | 285° |
| 2026-04-28 16:13 | 64.32133 | -42.49866 | 36011 ft | 490 kts | 285° |
| 2026-04-28 16:14 | 64.35695 | -42.80190 | 36012 ft | 489 kts | 284° |
| 2026-04-28 16:15 | 64.39180 | -43.10481 | 36011 ft | 489 kts | 284° |
| 2026-04-28 16:15 | 64.40904 | -43.25689 | 36010 ft | 490 kts | 284° |
| 2026-04-28 16:16 | 64.43468 | -43.48612 | 36011 ft | 491 kts | 284° |
| 2026-04-28 16:17 | 64.45998 | -43.71597 | 36010 ft | 490 kts | 284° |
| 2026-04-28 16:17 | 64.47661 | -43.86909 | 36009 ft | 489 kts | 284° |
| 2026-04-28 16:18 | 64.49307 | -44.02227 | 36007 ft | 489 kts | 283° |
| 2026-04-28 16:18 | 64.50939 | -44.17584 | 36006 ft | 490 kts | 283° |
| 2026-04-28 16:19 | 64.52545 | -44.32866 | 36012 ft | 491 kts | 283° |
| 2026-04-28 16:19 | 64.54149 | -44.48296 | 36013 ft | 491 kts | 283° |
| 2026-04-28 16:20 | 64.55735 | -44.63720 | 36010 ft | 490 kts | 283° |
| 2026-04-28 16:20 | 64.57302 | -44.79144 | 36008 ft | 489 kts | 283° |
| 2026-04-28 16:21 | 64.58851 | -44.94563 | 36008 ft | 489 kts | 283° |
| 2026-04-28 16:21 | 64.60388 | -45.10041 | 36012 ft | 490 kts | 283° |
| 2026-04-28 16:22 | 64.61899 | -45.25434 | 36013 ft | 491 kts | 282° |
| 2026-04-28 16:22 | 64.63406 | -45.40971 | 36009 ft | 490 kts | 282° |
| 2026-04-28 16:23 | 64.64892 | -45.56475 | 36010 ft | 489 kts | 282° |
| 2026-04-28 16:23 | 64.66360 | -45.71976 | 36010 ft | 489 kts | 282° |
| 2026-04-28 16:24 | 64.67814 | -45.87520 | 36006 ft | 490 kts | 282° |
| 2026-04-28 16:24 | 64.69253 | -46.03102 | 36009 ft | 491 kts | 282° |
| 2026-04-28 16:25 | 64.70679 | -46.18728 | 36012 ft | 492 kts | 282° |
| 2026-04-28 16:25 | 64.72087 | -46.34358 | 36010 ft | 491 kts | 281° |
| 2026-04-28 16:26 | 64.73476 | -46.49975 | 36011 ft | 490 kts | 281° |
| 2026-04-28 16:26 | 64.74848 | -46.65598 | 36008 ft | 490 kts | 281° |
| 2026-04-28 16:27 | 64.76195 | -46.81141 | 36011 ft | 491 kts | 281° |
| 2026-04-28 16:28 | 64.78204 | -47.04711 | 36011 ft | 492 kts | 281° |
| 2026-04-28 16:28 | 64.79523 | -47.20440 | 36010 ft | 491 kts | 281° |
| 2026-04-28 16:29 | 64.81463 | -47.43991 | 36007 ft | 490 kts | 281° |
| 2026-04-28 16:30 | 64.83368 | -47.67599 | 36010 ft | 491 kts | 280° |
| 2026-04-28 16:30 | 64.84620 | -47.83390 | 36011 ft | 492 kts | 280° |
| 2026-04-28 16:31 | 64.85855 | -47.99189 | 36010 ft | 491 kts | 280° |
| 2026-04-28 16:31 | 64.87064 | -48.14884 | 36009 ft | 490 kts | 280° |
| 2026-04-28 16:32 | 64.88261 | -48.30659 | 36008 ft | 489 kts | 279° |
| 2026-04-28 16:32 | 64.90028 | -48.54381 | 36007 ft | 491 kts | 279° |
| 2026-04-28 16:33 | 64.90804 | -48.64969 | 36009 ft | 491 kts | 279° |
| 2026-04-28 16:33 | 64.92329 | -48.86119 | 36009 ft | 491 kts | 279° |
| 2026-04-28 16:34 | 64.93452 | -49.01971 | 36010 ft | 490 kts | 279° |
| 2026-04-28 16:34 | 64.94372 | -49.15148 | 36008 ft | 490 kts | 279° |
| 2026-04-28 16:35 | 64.95463 | -49.31014 | 36009 ft | 491 kts | 279° |
| 2026-04-28 16:35 | 64.96541 | -49.46936 | 36013 ft | 491 kts | 278° |
| 2026-04-28 16:36 | 64.97602 | -49.62895 | 36010 ft | 491 kts | 278° |
| 2026-04-28 16:36 | 64.98645 | -49.78837 | 36011 ft | 490 kts | 278° |
| 2026-04-28 16:37 | 64.99669 | -49.94749 | 36007 ft | 489 kts | 278° |
| 2026-04-28 16:38 | 65.02453 | -50.17907 | 36009 ft | 490 kts | 288° |
| 2026-04-28 16:38 | 65.04551 | -50.33268 | 36012 ft | 490 kts | 287° |
| 2026-04-28 16:39 | 65.06618 | -50.48673 | 36011 ft | 490 kts | 287° |
| 2026-04-28 16:39 | 65.08677 | -50.64070 | 36013 ft | 490 kts | 287° |
| 2026-04-28 16:40 | 65.10715 | -50.79513 | 36011 ft | 490 kts | 287° |
| 2026-04-28 16:40 | 65.12738 | -50.94956 | 36010 ft | 490 kts | 287° |
| 2026-04-28 16:41 | 65.14747 | -51.10449 | 36008 ft | 491 kts | 287° |
| 2026-04-28 16:41 | 65.16743 | -51.25979 | 36010 ft | 491 kts | 287° |
| 2026-04-28 16:42 | 65.18724 | -51.41546 | 36009 ft | 491 kts | 286° |
| 2026-04-28 16:42 | 65.20688 | -51.57131 | 36010 ft | 491 kts | 286° |
| 2026-04-28 16:43 | 65.22623 | -51.72637 | 36011 ft | 491 kts | 286° |
| 2026-04-28 16:43 | 65.24556 | -51.88273 | 36011 ft | 491 kts | 286° |
| 2026-04-28 16:44 | 65.26470 | -52.03917 | 36012 ft | 491 kts | 286° |
| 2026-04-28 16:44 | 65.28369 | -52.19586 | 36011 ft | 491 kts | 285° |
| 2026-04-28 16:45 | 65.30251 | -52.35280 | 36008 ft | 491 kts | 285° |
| 2026-04-28 16:45 | 65.32120 | -52.51022 | 36010 ft | 491 kts | 285° |
| 2026-04-28 16:46 | 65.33962 | -52.66693 | 36011 ft | 491 kts | 285° |
| 2026-04-28 16:46 | 65.35797 | -52.82461 | 36010 ft | 491 kts | 285° |
| 2026-04-28 16:47 | 65.37615 | -52.98254 | 36009 ft | 491 kts | 285° |
| 2026-04-28 16:47 | 65.39414 | -53.14051 | 36007 ft | 491 kts | 285° |
| 2026-04-28 16:48 | 65.41198 | -53.29878 | 36009 ft | 491 kts | 285° |
| 2026-04-28 16:48 | 65.42965 | -53.45718 | 36009 ft | 491 kts | 284° |
| 2026-04-28 16:49 | 65.44713 | -53.61564 | 36012 ft | 490 kts | 284° |
| 2026-04-28 16:49 | 65.46446 | -53.77436 | 36011 ft | 490 kts | 284° |